RYR27G EPGD-EPKK
Flight info
| Callsign | RYR27G |
|---|---|
| Flight time | N/A |
| Altitude | 35000 |
| Route | IRLUN DCT PENEX N133 POLON DCT KUKAM |
| Aircraft | B738/M-SDE2E3FGHIRWXY/LB1 |
Departure
| Time | 2026-04-28 17:25 |
|---|---|
| Airport | Gdańsk Lech Wałęsa Airport (EPGD) |
Arrival
| Time | N/A |
|---|---|
| Airport | Kraków John Paul II International Airport (EPKK) |
| Time | Latitude | Longitude | Altitude | Speed | Heading |
|---|---|---|---|---|---|
| 2026-04-28 17:14 | 54.38133 | 18.46560 | 456 ft | 0 kts | 22° |
| 2026-04-28 17:17 | 54.38126 | 18.46554 | 456 ft | 2 kts | 21° |
| 2026-04-28 17:18 | 54.38112 | 18.46545 | 456 ft | 2 kts | 22° |
| 2026-04-28 17:18 | 54.38098 | 18.46533 | 456 ft | 2 kts | 50° |
| 2026-04-28 17:18 | 54.38092 | 18.46510 | 456 ft | 2 kts | 88° |
| 2026-04-28 17:18 | 54.38093 | 18.46494 | 456 ft | 1 kts | 112° |
| 2026-04-28 17:19 | 54.38096 | 18.46483 | 456 ft | 0 kts | 112° |
| 2026-04-28 17:21 | 54.38085 | 18.46529 | 456 ft | 9 kts | 111° |
| 2026-04-28 17:21 | 54.38039 | 18.46608 | 456 ft | 9 kts | 178° |
| 2026-04-28 17:22 | 54.37927 | 18.46671 | 456 ft | 15 kts | 117° |
| 2026-04-28 17:22 | 54.37864 | 18.46914 | 456 ft | 24 kts | 114° |
| 2026-04-28 17:22 | 54.37798 | 18.47174 | 458 ft | 23 kts | 111° |
| 2026-04-28 17:23 | 54.37684 | 18.47627 | 465 ft | 17 kts | 110° |
| 2026-04-28 17:23 | 54.37641 | 18.47811 | 468 ft | 17 kts | 112° |
| 2026-04-28 17:23 | 54.37579 | 18.48059 | 473 ft | 23 kts | 112° |
| 2026-04-28 17:23 | 54.37519 | 18.48300 | 479 ft | 20 kts | 113° |
| 2026-04-28 17:24 | 54.37469 | 18.48503 | 484 ft | 16 kts | 112° |
| 2026-04-28 17:24 | 54.37414 | 18.48639 | 487 ft | 13 kts | 162° |
| 2026-04-28 17:24 | 54.37329 | 18.48601 | 486 ft | 12 kts | 202° |
| 2026-04-28 17:24 | 54.37288 | 18.48522 | 485 ft | 3 kts | 289° |
| 2026-04-28 17:25 | 54.37304 | 18.48457 | 484 ft | 16 kts | 292° |
| 2026-04-28 17:25 | 54.37836 | 18.46289 | 490 ft | 165 kts | 293° |
| 2026-04-28 17:25 | 54.38250 | 18.44476 | 1220 ft | 172 kts | 296° |
| 2026-04-28 17:26 | 54.38712 | 18.42535 | 2096 ft | 176 kts | 297° |
| 2026-04-28 17:26 | 54.39203 | 18.40634 | 2696 ft | 185 kts | 298° |
| 2026-04-28 17:26 | 54.39752 | 18.38477 | 3076 ft | 208 kts | 297° |
| 2026-04-28 17:26 | 54.40329 | 18.36141 | 3618 ft | 224 kts | 296° |
| 2026-04-28 17:27 | 54.40939 | 18.33649 | 4461 ft | 228 kts | 297° |
| 2026-04-28 17:27 | 54.41538 | 18.31201 | 5403 ft | 226 kts | 298° |
| 2026-04-28 17:27 | 54.42131 | 18.28787 | 6315 ft | 224 kts | 299° |
| 2026-04-28 17:27 | 54.42675 | 18.26300 | 7147 ft | 228 kts | 291° |
| 2026-04-28 17:28 | 54.42786 | 18.23531 | 7953 ft | 242 kts | 268° |